M I D A S
Marine Information and Data Acquisition System
Tripno 765 of the Zeeleeuw from 2004-08-23 06:31:38 to 2004-08-23 10:44:42
Back to CruiseResearch ActivitiesStationsMapUnderway DataData graphs

EquipmentUnitsComment
TimeDGPSUTC
LatitudeDGPSDM.mWGS84
LongitudeDGPSDM.mWGS84
HeadingGyrodeg 
SOGDGPSknotsSpeed over ground
COGDGPSdegCourse over ground
DepthEcho soundermeters200 kHz
Missing or incorrect values are displayed as -999
Navigation data collected by the RV Zeeleeuw from 2004-08-23 06:31:38 to 2004-08-23 10:44:42
                                                                                    Next 1000 lines
Time Latitude Longitude Heading SOG COG Depth
2004-08-23 06:31:49 51°13.594 2°56.115 123.2 0.1 199 10.1
2004-08-23 06:31:53 51°13.594 2°56.115 121.9 0.1 191 10.1
2004-08-23 06:31:59 51°13.594 2°56.115 120.5 0.1 188 10.2
2004-08-23 06:32:04 51°13.594 2°56.115 119 0.1 193 10.2
2004-08-23 06:32:09 51°13.593 2°56.115 117.3 0.2 195 10.2
2004-08-23 06:32:13 51°13.593 2°56.115 115.7 0.2 195 10.2
2004-08-23 06:32:17 51°13.593 2°56.115 114.2 0.1 211 10.3
2004-08-23 06:32:22 51°13.593 2°56.115 113 0.2 223 10.2
2004-08-23 06:32:31 51°13.593 2°56.112 111.8 0.6 282 10.2
2004-08-23 06:32:33 51°13.593 2°56.112 111.5 1.1 287 10.1
2004-08-23 06:32:41 51°13.594 2°56.107 111.4 1.2 289 10
2004-08-23 06:32:45 51°13.595 2°56.104 111.7 1.7 290 10.1
2004-08-23 06:32:57 51°13.597 2°56.094 113.4 2.4 293 -999
2004-08-23 06:33:02 51°13.599 2°56.088 114.2 2.6 293 -999
2004-08-23 06:33:07 51°13.6 2°56.083 114.8 2.8 294 -999
2004-08-23 06:33:14 51°13.603 2°56.074 115.1 3 293 -999
2004-08-23 06:33:17 51°13.604 2°56.07 115.3 3.2 294 -999
2004-08-23 06:33:22 51°13.606 2°56.063 115.4 3.4 293 -999
2004-08-23 06:33:26 51°13.607 2°56.057 115.3 3.5 294 -999
2004-08-23 06:33:33 51°13.61 2°56.047 115.3 3.6 293 -999
2004-08-23 06:33:37 51°13.611 2°56.041 115.2 3.8 293 -999
2004-08-23 06:33:42 51°13.613 2°56.033 115.1 3.9 292 -999
2004-08-23 06:33:47 51°13.615 2°56.025 115.1 3.9 293 -999
2004-08-23 06:33:52 51°13.617 2°56.016 115.6 4 292 -999
2004-08-23 06:33:57 51°13.62 2°56.008 116.1 4.2 293 -999
2004-08-23 06:34:02 51°13.622 2°55.999 116.7 4.3 293 -999
2004-08-23 06:34:07 51°13.625 2°55.99 117.2 4.4 293 -999
2004-08-23 06:34:13 51°13.628 2°55.979 117.9 4.5 294 -999
2004-08-23 06:34:17 51°13.63 2°55.972 118.3 4.6 295 -999
2004-08-23 06:34:21 51°13.632 2°55.964 118.5 4.6 295 -999
2004-08-23 06:34:26 51°13.635 2°55.955 118.6 4.6 295 -999
2004-08-23 06:34:30 51°13.637 2°55.948 118.6 4.6 295 -999
2004-08-23 06:34:37 51°13.641 2°55.935 118.4 4.5 296 -999
2004-08-23 06:34:42 51°13.644 2°55.926 118 4.5 295 -999
2004-08-23 06:34:47 51°13.646 2°55.917 117.4 4.5 295 -999
2004-08-23 06:34:52 51°13.649 2°55.908 116.8 4.5 295 -999
2004-08-23 06:34:57 51°13.651 2°55.899 115.6 4.4 294 -999
2004-08-23 06:35:02 51°13.654 2°55.89 114.3 4.4 293 -999
2004-08-23 06:35:07 51°13.656 2°55.881 112.9 4.3 292 -999
2004-08-23 06:35:12 51°13.658 2°55.872 111.1 4.3 291 -999
2004-08-23 06:35:17 51°13.66 2°55.864 109.3 4.1 289 -999
2004-08-23 06:35:22 51°13.662 2°55.855 107.1 4.1 287 -999
2004-08-23 06:35:27 51°13.663 2°55.846 105.2 4 286 -999
2004-08-23 06:35:32 51°13.664 2°55.838 103.2 3.9 284 -999
2004-08-23 06:35:38 51°13.666 2°55.828 101.8 3.9 282 -999
2004-08-23 06:35:42 51°13.666 2°55.821 99.4 3.8 281 -999
2004-08-23 06:35:47 51°13.667 2°55.813 97.4 3.8 280 -999
2004-08-23 06:35:52 51°13.668 2°55.805 95.3 3.7 277 -999
2004-08-23 06:35:57 51°13.669 2°55.797 93.1 3.5 276 -999
2004-08-23 06:36:02 51°13.669 2°55.789 91.6 3.4 275 -999
2004-08-23 06:36:07 51°13.669 2°55.783 90 3.1 275 -999
2004-08-23 06:36:12 51°13.669 2°55.777 87.8 2.5 272 -999
2004-08-23 06:36:17 51°13.67 2°55.773 85 1.9 274 -999
2004-08-23 06:36:22 51°13.67 2°55.77 82 1.5 274 12.2
2004-08-23 06:36:27 51°13.67 2°55.767 79.5 1.1 279 12.7
2004-08-23 06:36:30 51°13.67 2°55.767 75.4 0.7 290 12.8
2004-08-23 06:36:37 51°13.671 2°55.766 71.8 0.5 336 12.9
2004-08-23 06:36:42 51°13.672 2°55.767 66.6 0.8 22 13
2004-08-23 06:36:46 51°13.673 2°55.768 61 1.2 33 13.3
2004-08-23 06:36:49 51°13.674 2°55.769 54.3 1.6 30 13.5
2004-08-23 06:36:56 51°13.678 2°55.772 46.5 2.3 26 14
2004-08-23 06:37:01 51°13.681 2°55.774 38.5 2.7 21 15
2004-08-23 06:37:06 51°13.685 2°55.775 30.3 3 15 15.4
2004-08-23 06:37:18 51°13.697 2°55.776 10.6 3.8 358 15.4
2004-08-23 06:37:24 51°13.704 2°55.774 2.5 4.1 349 15.2
2004-08-23 06:37:29 51°13.71 2°55.771 354.5 4.1 345 15.3
2004-08-23 06:37:33 51°13.714 2°55.767 346.5 4.5 331 14.7
2004-08-23 06:37:39 51°13.721 2°55.761 337.5 4.7 328 14.1
2004-08-23 06:37:44 51°13.725 2°55.753 328.9 4.7 317 12.5
2004-08-23 06:37:49 51°13.73 2°55.746 321.3 4.7 315 12
2004-08-23 06:37:53 51°13.733 2°55.739 316.2 5.1 310 -999
2004-08-23 06:37:59 51°13.739 2°55.727 313.5 5.6 309 11.4
2004-08-23 06:38:01 51°13.742 2°55.723 312.3 6.2 310 11.2
2004-08-23 06:38:09 51°13.751 2°55.706 312.9 6.6 311 11.3
2004-08-23 06:38:14 51°13.758 2°55.695 314.9 6.9 313 11.4
2004-08-23 06:38:18 51°13.763 2°55.686 317.2 7.1 315 11.7
2004-08-23 06:38:23 51°13.771 2°55.675 320.1 7.4 318 11.8
2004-08-23 06:38:28 51°13.779 2°55.664 322.9 7.6 321 12.2
2004-08-23 06:38:34 51°13.79 2°55.652 325.9 7.9 325 12.1
2004-08-23 06:38:43 51°13.807 2°55.635 332.1 8.1 330 12.9
2004-08-23 06:38:48 51°13.818 2°55.627 335.7 8.3 332 12.8
2004-08-23 06:38:53 51°13.828 2°55.62 338.5 8.4 335 12.5
2004-08-23 06:38:57 51°13.837 2°55.613 339.9 8.6 336 12.7
2004-08-23 06:39:01 51°13.846 2°55.607 340.7 8.6 337 12.6
2004-08-23 06:39:05 51°13.855 2°55.601 341.5 8.7 337 12.6
2004-08-23 06:39:16 51°13.88 2°55.585 342.5 8.9 337 11.8
2004-08-23 06:39:21 51°13.891 2°55.577 342.4 9 337 11.9
2004-08-23 06:39:27 51°13.905 2°55.568 341.8 9 336 11.7
2004-08-23 06:39:31 51°13.914 2°55.561 341.1 9 336 11.5
2004-08-23 06:39:37 51°13.928 2°55.552 341.3 9.1 337 11.8
2004-08-23 06:39:42 51°13.94 2°55.544 341.4 9.1 337 12.3
2004-08-23 06:39:47 51°13.951 2°55.536 341 9.2 336 12.7
2004-08-23 06:39:52 51°13.963 2°55.528 340.6 9.2 336 13
2004-08-23 06:39:57 51°13.975 2°55.52 341 9.2 336 13.5
2004-08-23 06:40:02 51°13.987 2°55.511 341.1 9.3 337 13.7
2004-08-23 06:40:07 51°13.999 2°55.503 340.8 9.3 336 13.6
2004-08-23 06:40:09 51°14.003 2°55.5 340.5 9.3 336 12.6
2004-08-23 06:40:17 51°14.022 2°55.486 340.8 9.3 336 12.3
2004-08-23 06:40:21 51°14.032 2°55.48 341 9.3 336 12.1
2004-08-23 06:40:26 51°14.043 2°55.471 340.8 9.3 335 12.4
2004-08-23 06:40:32 51°14.057 2°55.461 340.5 9.3 336 12.5
2004-08-23 06:40:37 51°14.069 2°55.454 341.1 9.3 337 12.8
2004-08-23 06:40:42 51°14.081 2°55.445 341.2 9.3 337 12.5
2004-08-23 06:40:47 51°14.093 2°55.437 341.5 9.2 337 12.7
2004-08-23 06:40:58 51°14.118 2°55.418 339.8 9.3 335 12.9
2004-08-23 06:41:03 51°14.13 2°55.409 339.6 9.3 334 13.1
2004-08-23 06:41:09 51°14.144 2°55.397 338.3 9.3 333 13.1
2004-08-23 06:41:13 51°14.153 2°55.389 336.7 9.4 332 12.9
2004-08-23 06:41:17 51°14.162 2°55.382 336.5 9.3 332 12.9
2004-08-23 06:41:24 51°14.178 2°55.367 335.9 9.3 329 13.3
2004-08-23 06:41:36 51°14.205 2°55.337 329.9 10.2 323 13.5
2004-08-23 06:41:41 51°14.216 2°55.323 327.6 10.4 321 13.3
2004-08-23 06:41:46 51°14.227 2°55.308 326 10.6 320 13
2004-08-23 06:41:58 51°14.254 2°55.268 321.8 11.1 315 13.1
2004-08-23 06:42:03 51°14.264 2°55.249 318.2 11.2 312 13.1
2004-08-23 06:42:09 51°14.277 2°55.227 315.9 11.4 311 13
2004-08-23 06:42:13 51°14.285 2°55.211 315.4 11.7 311 13.1
2004-08-23 06:42:17 51°14.294 2°55.196 316.8 11.8 313 13.1
2004-08-23 06:42:22 51°14.305 2°55.176 316.9 12 310 12.9
2004-08-23 06:42:29 51°14.32 2°55.147 315.7 12.1 310 12.9
2004-08-23 06:42:33 51°14.329 2°55.13 314.4 12.3 309 12.9
2004-08-23 06:42:37 51°14.337 2°55.113 314 12.4 309 12.8
2004-08-23 06:42:44 51°14.353 2°55.083 313.9 12.6 309 12.4
2004-08-23 06:42:49 51°14.364 2°55.062 314.3 12.6 311 12.7
2004-08-23 06:42:54 51°14.376 2°55.041 315.7 12.7 312 13
2004-08-23 06:42:58 51°14.386 2°55.024 317.3 12.7 313 12.9
2004-08-23 06:43:01 51°14.393 2°55.012 318.2 12.9 313 12.7
2004-08-23 06:43:09 51°14.413 2°54.979 318.9 12.8 314 12.9
2004-08-23 06:43:13 51°14.421 2°54.961 316.4 12.8 306 12.9
2004-08-23 06:43:18 51°14.431 2°54.937 311.1 12.8 303 12.7
2004-08-23 06:43:24 51°14.44 2°54.907 305.2 12.7 296 12.7
2004-08-23 06:43:29 51°14.447 2°54.881 299.4 12.7 293 12.5
2004-08-23 06:43:34 51°14.451 2°54.855 293.9 12.5 286 12.5
2004-08-23 06:43:39 51°14.455 2°54.828 288.5 12.4 283 12.7
2004-08-23 06:43:44 51°14.457 2°54.8 283.3 12.4 278 12.7
2004-08-23 06:43:46 51°14.458 2°54.789 280 12.4 277 12.6
2004-08-23 06:43:55 51°14.461 2°54.74 278.5 12.5 276 12.8
2004-08-23 06:43:57 51°14.462 2°54.729 277.9 12.5 276 12.7
2004-08-23 06:44:05 51°14.465 2°54.685 277.7 12.5 276 12.7
2004-08-23 06:44:09 51°14.465 2°54.663 276.7 12.4 273 12.8
2004-08-23 06:44:13 51°14.466 2°54.641 275 12.5 272 12.6
2004-08-23 06:44:17 51°14.466 2°54.619 273.5 12.5 271 12.7
2004-08-23 06:44:25 51°14.464 2°54.574 270.7 12.6 265 12.6
2004-08-23 06:44:30 51°14.462 2°54.547 267.8 12.6 263 12.5
2004-08-23 06:44:33 51°14.46 2°54.53 264.5 12.6 260 12.4
2004-08-23 06:44:40 51°14.456 2°54.492 262.1 12.7 259 12.4
2004-08-23 06:44:45 51°14.451 2°54.464 260.2 12.7 258 12.6
2004-08-23 06:44:48 51°14.449 2°54.448 259.2 12.8 256 12.5
2004-08-23 06:44:54 51°14.443 2°54.415 257.9 12.9 255 12.5
2004-08-23 06:44:58 51°14.44 2°54.393 257.4 12.9 255 12.1
2004-08-23 06:45:05 51°14.433 2°54.354 257 12.8 254 11.8
2004-08-23 06:45:16 51°14.423 2°54.294 256.9 12.9 254 11.5
2004-08-23 06:45:21 51°14.418 2°54.267 257.2 12.9 255 11.4
2004-08-23 06:45:25 51°14.414 2°54.245 256 12.8 251 11.4
2004-08-23 06:45:30 51°14.408 2°54.218 254.1 12.9 251 11.2
2004-08-23 06:45:34 51°14.403 2°54.197 252.3 12.9 248 11.4
2004-08-23 06:45:41 51°14.393 2°54.16 251.1 13 249 11.3
2004-08-23 06:45:45 51°14.387 2°54.139 250.3 12.8 247 11.4
2004-08-23 06:45:50 51°14.38 2°54.112 249.5 12.8 247 11.3
2004-08-23 06:45:54 51°14.374 2°54.091 249.1 12.9 246 11.4
2004-08-23 06:46:01 51°14.364 2°54.055 248.7 12.9 246 11.3
2004-08-23 06:46:05 51°14.357 2°54.035 247 13 243 11.4
2004-08-23 06:46:10 51°14.35 2°54.009 246.1 12.9 244 11.4
2004-08-23 06:46:14 51°14.343 2°53.989 245.6 12.9 241 11.4
2004-08-23 06:46:21 51°14.331 2°53.954 244.4 13 242 11.5
2004-08-23 06:46:25 51°14.324 2°53.934 244.6 12.9 241 11.4
2004-08-23 06:46:30 51°14.315 2°53.908 243.6 13.1 241 11.2
2004-08-23 06:46:34 51°14.309 2°53.888 243.9 12.9 242 11.3
2004-08-23 06:46:41 51°14.296 2°53.853 243.8 12.9 241 11.3
2004-08-23 06:46:45 51°14.29 2°53.833 243.2 13 242 11.4
2004-08-23 06:46:50 51°14.281 2°53.808 244 13 241 11.4
2004-08-23 06:46:56 51°14.271 2°53.778 243.8 12.9 242 11.4
2004-08-23 06:47:01 51°14.263 2°53.753 243.8 12.9 241 11.3
2004-08-23 06:47:05 51°14.256 2°53.733 243.7 13 242 11.3
2004-08-23 06:47:11 51°14.246 2°53.702 244.2 12.9 242 11.3
2004-08-23 06:47:13 51°14.242 2°53.692 244.3 12.9 242 11.3
2004-08-23 06:47:22 51°14.227 2°53.646 244.5 13 242 11.5
2004-08-23 06:47:28 51°14.217 2°53.616 244.9 13 242 11.5
2004-08-23 06:47:33 51°14.208 2°53.591 244.9 13 242 11.5
2004-08-23 06:47:38 51°14.2 2°53.565 244.6 13 242 11.5
2004-08-23 06:47:43 51°14.191 2°53.54 244.4 13.1 242 11.5
2004-08-23 06:47:47 51°14.184 2°53.519 244.4 13.1 242 11.4
2004-08-23 06:47:53 51°14.174 2°53.489 244.4 13.1 241 11.6
2004-08-23 06:47:58 51°14.165 2°53.463 244.1 13.1 242 11.5
2004-08-23 06:48:02 51°14.158 2°53.443 243.8 13 241 11.5
2004-08-23 06:48:08 51°14.147 2°53.413 243.4 13.1 240 11.6
2004-08-23 06:48:13 51°14.138 2°53.388 242.9 13.1 240 11.6
2004-08-23 06:48:18 51°14.128 2°53.363 242.5 13.2 238 11.6
2004-08-23 06:48:23 51°14.12 2°53.339 241.9 13.2 240 11.6
2004-08-23 06:48:27 51°14.112 2°53.319 242.5 13 239 11.7
2004-08-23 06:48:33 51°14.101 2°53.289 241.8 13.1 239 11.7
2004-08-23 06:48:37 51°14.094 2°53.269 241.9 13.2 239 11.7
2004-08-23 06:48:41 51°14.086 2°53.249 242.4 13.2 240 11.7
2004-08-23 06:48:45 51°14.079 2°53.229 242.5 13.1 240 11.7
2004-08-23 06:48:53 51°14.065 2°53.189 242.7 13 240 11.8
2004-08-23 06:48:58 51°14.056 2°53.164 242.8 13.1 240 11.8
2004-08-23 06:49:02 51°14.049 2°53.144 243.3 13.1 241 11.9
2004-08-23 06:49:06 51°14.042 2°53.124 243.5 13.1 240 11.8
2004-08-23 06:49:13 51°14.029 2°53.088 243.5 13 241 12
2004-08-23 06:49:18 51°14.02 2°53.064 243.6 13.1 239 11.9
2004-08-23 06:49:23 51°14.011 2°53.038 243.1 13.1 241 12
2004-08-23 06:49:28 51°14.002 2°53.014 243.3 13 239 12.1
2004-08-23 06:49:33 51°13.993 2°52.989 242.5 13.1 240 12
2004-08-23 06:49:37 51°13.986 2°52.969 243 13.1 240 12
2004-08-23 06:49:41 51°13.979 2°52.948 243.7 13 242 12.1
2004-08-23 06:49:45 51°13.972 2°52.928 243.9 13 240 12.1
2004-08-23 06:49:56 51°13.952 2°52.873 244.3 12.9 240 12.1
2004-08-23 06:50:01 51°13.944 2°52.848 243.7 12.9 240 12.1
2004-08-23 06:50:05 51°13.936 2°52.828 243.5 13 241 12.2
2004-08-23 06:50:13 51°13.922 2°52.788 243.1 13 240 12.2
2004-08-23 06:50:21 51°13.908 2°52.748 243.1 13 241 12.2
2004-08-23 06:50:26 51°13.899 2°52.723 243.2 13 240 12.3
2004-08-23 06:50:29 51°13.894 2°52.708 243.2 13.1 240 12.2
2004-08-23 06:50:36 51°13.881 2°52.672 243.1 13 242 12.3
2004-08-23 06:50:41 51°13.872 2°52.648 243.5 13 241 12.3
2004-08-23 06:50:46 51°13.864 2°52.622 243.3 13 242 12.3
2004-08-23 06:50:50 51°13.856 2°52.603 243.8 13 239 12.3
2004-08-23 06:50:54 51°13.85 2°52.582 243.8 12.9 242 12.4
2004-08-23 06:51:01 51°13.837 2°52.548 243.9 13 240 12.3
2004-08-23 06:51:05 51°13.83 2°52.527 243.4 13 242 12.4
2004-08-23 06:51:10 51°13.821 2°52.503 244.1 12.8 240 12.3
2004-08-23 06:51:14 51°13.814 2°52.483 243 13.1 239 12.4
2004-08-23 06:51:21 51°13.801 2°52.448 243.1 13.1 240 12.4
2004-08-23 06:51:25 51°13.794 2°52.428 243.8 13 239 12.4
2004-08-23 06:51:30 51°13.785 2°52.403 243.3 13 242 12.4
2004-08-23 06:51:34 51°13.778 2°52.383 243.7 13 239 12.3
2004-08-23 06:51:41 51°13.765 2°52.348 243.3 13 241 12.3
2004-08-23 06:51:45 51°13.758 2°52.328 243.4 13 240 12.3
2004-08-23 06:51:50 51°13.749 2°52.303 243.2 13 241 12.4
2004-08-23 06:51:54 51°13.742 2°52.284 243.2 12.9 239 12.4
2004-08-23 06:52:01 51°13.729 2°52.249 242.9 12.9 239 12.3
2004-08-23 06:52:05 51°13.722 2°52.229 242.3 13 240 12.5
2004-08-23 06:52:10 51°13.713 2°52.205 243.1 12.9 240 12.5
2004-08-23 06:52:14 51°13.705 2°52.185 242.2 13.1 240 12.3
2004-08-23 06:52:21 51°13.693 2°52.15 243.1 13 242 12.5
2004-08-23 06:52:25 51°13.685 2°52.131 243.3 13 239 12.4
2004-08-23 06:52:30 51°13.676 2°52.105 242.6 13.1 240 12.4
2004-08-23 06:52:34 51°13.669 2°52.086 243.4 12.9 239 12.5
2004-08-23 06:52:41 51°13.656 2°52.051 242.7 12.9 239 12.5
2004-08-23 06:52:45 51°13.649 2°52.031 242.7 13.1 240 12.4
2004-08-23 06:52:50 51°13.64 2°52.006 243.1 13 240 12.6
2004-08-23 06:52:56 51°13.629 2°51.977 243.3 13 240 12.5
2004-08-23 06:53:01 51°13.621 2°51.952 243.5 12.9 241 12.5
2004-08-23 06:53:13 51°13.599 2°51.892 243.1 13.1 240 12.5
2004-08-23 06:53:17 51°13.592 2°51.872 243.8 12.9 240 12.5
2004-08-23 06:53:21 51°13.584 2°51.853 242.7 13 239 12.4
2004-08-23 06:53:25 51°13.577 2°51.833 243 13.1 241 12.5
2004-08-23 06:53:30 51°13.568 2°51.808 243.4 12.9 240 12.4
2004-08-23 06:53:37 51°13.555 2°51.773 242.9 12.9 240 12.5
2004-08-23 06:53:41 51°13.548 2°51.754 242.8 13 239 12.4
2004-08-23 06:53:45 51°13.54 2°51.734 242.4 13 239 12.6
2004-08-23 06:53:53 51°13.526 2°51.695 242.4 13 239 12.4
2004-08-23 06:53:57 51°13.518 2°51.675 242.4 12.9 239 12.4
2004-08-23 06:54:02 51°13.509 2°51.651 242.5 12.9 240 12.6
2004-08-23 06:54:08 51°13.498 2°51.621 242.4 13.1 238 12.6
2004-08-23 06:54:13 51°13.489 2°51.596 242.8 12.8 240 12.7
2004-08-23 06:54:18 51°13.479 2°51.572 243.3 12.9 238 12.6
2004-08-23 06:54:22 51°13.472 2°51.552 242.3 13 241 12.6
2004-08-23 06:54:28 51°13.461 2°51.522 243.6 12.9 239 12.7
2004-08-23 06:54:33 51°13.452 2°51.497 243 13 240 12.7
2004-08-23 06:54:38 51°13.443 2°51.472 243 13 240 12.8
2004-08-23 06:54:41 51°13.438 2°51.458 243.3 12.9 239 12.8
2004-08-23 06:54:49 51°13.424 2°51.418 243.2 13 240 12.6
2004-08-23 06:54:53 51°13.417 2°51.398 243.8 12.9 241 12.7
2004-08-23 06:55:01 51°13.402 2°51.358 243.4 13 239 12.7
2004-08-23 06:55:05 51°13.395 2°51.338 243.8 12.9 240 12.7
2004-08-23 06:55:16 51°13.376 2°51.283 243.5 13 241 12.8
2004-08-23 06:55:22 51°13.365 2°51.253 244 12.9 241 12.8
2004-08-23 06:55:27 51°13.357 2°51.228 244 12.9 241 12.7
2004-08-23 06:55:31 51°13.349 2°51.209 243.8 12.9 239 12.7
2004-08-23 06:55:37 51°13.339 2°51.179 243.8 12.9 241 12.8
2004-08-23 06:55:42 51°13.329 2°51.154 243.2 13 239 12.8
2004-08-23 06:55:47 51°13.32 2°51.129 242.9 13 240 12.8
2004-08-23 06:55:52 51°13.311 2°51.105 243.1 12.9 240 12.8
2004-08-23 06:56:02 51°13.293 2°51.056 243.1 12.9 240 12.8
2004-08-23 06:56:06 51°13.286 2°51.036 243.3 12.9 240 12.8
2004-08-23 06:56:13 51°13.274 2°51.001 242.9 13 239 12.8
2004-08-23 06:56:18 51°13.265 2°50.976 243.8 12.9 240 12.8
2004-08-23 06:56:22 51°13.258 2°50.957 244 12.8 240 12.9
2004-08-23 06:56:28 51°13.247 2°50.927 243.7 12.9 240 12.8
2004-08-23 06:56:33 51°13.238 2°50.902 243.8 12.9 240 12.9
2004-08-23 06:56:38 51°13.229 2°50.877 243.5 12.9 240 12.9
2004-08-23 06:56:43 51°13.22 2°50.853 243.4 12.9 240 12.9
2004-08-23 06:56:48 51°13.211 2°50.828 243.1 12.9 240 12.9
2004-08-23 06:56:53 51°13.202 2°50.803 243.2 12.9 240 12.9
2004-08-23 06:57:02 51°13.186 2°50.759 243.4 12.9 240 12.9
2004-08-23 06:57:12 51°13.168 2°50.709 243.6 13 240 12.9
2004-08-23 06:57:17 51°13.159 2°50.684 243.8 12.9 240 12.9
2004-08-23 06:57:21 51°13.152 2°50.664 243.8 13 241 12.9
2004-08-23 06:57:25 51°13.145 2°50.644 243.8 13 240 12.9
2004-08-23 06:57:36 51°13.125 2°50.59 243.7 13 239 13
2004-08-23 06:57:41 51°13.116 2°50.565 243.4 13 240 13
2004-08-23 06:57:47 51°13.105 2°50.535 243.3 12.9 239 12.9
2004-08-23 06:57:51 51°13.098 2°50.516 242.7 13 239 12.9
2004-08-23 06:57:57 51°13.087 2°50.486 242.8 12.9 240 12.9
2004-08-23 06:58:02 51°13.078 2°50.461 243.4 12.9 240 13.1
2004-08-23 06:58:07 51°13.069 2°50.437 243.1 13 239 12.9
2004-08-23 06:58:11 51°13.062 2°50.417 243.1 13 239 13
2004-08-23 06:58:17 51°13.051 2°50.387 243.3 12.9 241 13
2004-08-23 06:58:22 51°13.042 2°50.363 242.9 13 239 13
2004-08-23 06:58:27 51°13.033 2°50.338 243.1 13 240 13
2004-08-23 06:58:31 51°13.025 2°50.319 243.1 12.9 239 13
2004-08-23 06:58:37 51°13.014 2°50.289 242.3 12.9 239 13
2004-08-23 06:58:42 51°13.005 2°50.264 242.7 13 240 13.1
2004-08-23 06:58:46 51°12.998 2°50.245 243.3 12.9 239 13
2004-08-23 06:58:51 51°12.989 2°50.22 242.7 13 240 13
2004-08-23 06:58:57 51°12.978 2°50.19 242.7 13 239 13.1
2004-08-23 06:59:02 51°12.969 2°50.165 243.1 13 240 13.1
2004-08-23 06:59:07 51°12.96 2°50.14 243.1 13 240 13.1
2004-08-23 06:59:11 51°12.952 2°50.12 243.4 13.1 240 13.1
2004-08-23 06:59:17 51°12.942 2°50.09 243.9 13 241 13.1
2004-08-23 06:59:22 51°12.933 2°50.065 244.1 13 241 13.2
2004-08-23 06:59:27 51°12.924 2°50.04 244.5 13 241 13.1
2004-08-23 06:59:29 51°12.921 2°50.03 244.1 13 239 13.1
2004-08-23 06:59:37 51°12.906 2°49.99 243.8 13 240 13.1
2004-08-23 06:59:41 51°12.899 2°49.97 242.9 13.1 240 13.1
2004-08-23 06:59:47 51°12.888 2°49.941 242.9 13 240 13.2
2004-08-23 06:59:52 51°12.879 2°49.916 243 12.9 239 13
2004-08-23 06:59:57 51°12.869 2°49.891 242.4 13.1 238 12.9
2004-08-23 07:00:02 51°12.861 2°49.866 242.9 13 241 12.9
2004-08-23 07:00:05 51°12.855 2°49.851 243.6 12.9 239 13.1
2004-08-23 07:00:14 51°12.839 2°49.806 243.2 13.1 240 13.2
2004-08-23 07:00:19 51°12.83 2°49.782 243.6 12.9 240 13.1
2004-08-23 07:00:25 51°12.819 2°49.752 243.1 13 240 13.2
2004-08-23 07:00:30 51°12.81 2°49.727 243.1 13 240 13.2
2004-08-23 07:00:35 51°12.801 2°49.703 243.3 13 240 13.3
2004-08-23 07:00:37 51°12.798 2°49.692 243.3 13 240 13.2
2004-08-23 07:00:45 51°12.783 2°49.653 243.4 13 239 13
2004-08-23 07:00:50 51°12.774 2°49.628 243.6 12.9 241 13.2
2004-08-23 07:00:54 51°12.767 2°49.608 243.4 13 238 13.1
2004-08-23 07:00:58 51°12.76 2°49.588 243 13.1 241 13.2
2004-08-23 07:01:05 51°12.747 2°49.554 243.8 12.9 240 13.2
2004-08-23 07:01:09 51°12.74 2°49.533 243.1 13 241 13.1
2004-08-23 07:01:14 51°12.731 2°49.509 243.4 12.9 239 13.3
2004-08-23 07:01:19 51°12.722 2°49.484 242.6 13 240 13.2
2004-08-23 07:01:25 51°12.711 2°49.455 243.1 13 238 13.3
2004-08-23 07:01:29 51°12.703 2°49.435 242.7 13.1 239 13.3
2004-08-23 07:01:34 51°12.694 2°49.41 242.9 13 241 13.3
2004-08-23 07:01:38 51°12.687 2°49.39 243.2 13 238 13.2
2004-08-23 07:01:45 51°12.674 2°49.355 242.7 13 241 13.2
2004-08-23 07:01:49 51°12.666 2°49.336 243.3 13 239 13.3
2004-08-23 07:01:55 51°12.656 2°49.306 243.1 13.1 241 13.3
2004-08-23 07:01:58 51°12.651 2°49.291 243.8 12.9 240 13.3
2004-08-23 07:02:05 51°12.638 2°49.256 243.1 12.9 240 13.3
2004-08-23 07:02:10 51°12.629 2°49.231 243.1 13.1 240 13.3
2004-08-23 07:02:15 51°12.62 2°49.206 243.4 13.1 240 13.3
2004-08-23 07:02:19 51°12.613 2°49.186 243.4 12.9 240 13.4
2004-08-23 07:02:25 51°12.602 2°49.157 243.4 12.9 240 13.3
2004-08-23 07:02:30 51°12.593 2°49.131 243 13.1 240 13.4
2004-08-23 07:02:34 51°12.586 2°49.112 243.5 13 240 13.4
2004-08-23 07:02:38 51°12.578 2°49.092 243.4 13 239 13.4
2004-08-23 07:02:45 51°12.566 2°49.057 243.1 13.1 241 13.3
2004-08-23 07:02:49 51°12.559 2°49.037 243.7 12.9 240 13.3
2004-08-23 07:02:55 51°12.548 2°49.007 243.1 13 240 13.4
2004-08-23 07:02:58 51°12.542 2°48.992 243 13.1 240 13.3
2004-08-23 07:03:05 51°12.529 2°48.957 243 13 240 13.3
2004-08-23 07:03:10 51°12.52 2°48.933 242.7 13 240 13.2
2004-08-23 07:03:14 51°12.513 2°48.913 242.7 13 240 13.3
2004-08-23 07:03:18 51°12.505 2°48.893 242.6 13 239 13.3
2004-08-23 07:03:25 51°12.493 2°48.858 242.7 13.1 240 13.2
2004-08-23 07:03:30 51°12.484 2°48.834 243.1 13 239 13.3
2004-08-23 07:03:34 51°12.476 2°48.814 242.9 13 240 13.3
2004-08-23 07:03:37 51°12.471 2°48.798 243.2 13 239 13.3
2004-08-23 07:03:45 51°12.456 2°48.759 243.1 13 241 13.3
2004-08-23 07:03:50 51°12.447 2°48.734 243.4 13 240 13.3
2004-08-23 07:03:54 51°12.44 2°48.714 243.5 13 241 13.4
2004-08-23 07:03:57 51°12.435 2°48.699 243.6 13 241 13.4
2004-08-23 07:04:05 51°12.421 2°48.659 244 12.9 241 13.4
2004-08-23 07:04:10 51°12.412 2°48.633 243.9 13.1 241 13.4
2004-08-23 07:04:14 51°12.405 2°48.613 244.3 13 241 13.4
2004-08-23 07:04:19 51°12.396 2°48.588 244.5 13 241 13.4
2004-08-23 07:04:30 51°12.377 2°48.533 243.4 13 240 13.5
2004-08-23 07:04:37 51°12.364 2°48.499 243.1 13 240 13.4
2004-08-23 07:04:41 51°12.357 2°48.479 243 13 239 13.4
2004-08-23 07:04:46 51°12.347 2°48.454 242.5 13.1 240 13.3
2004-08-23 07:04:51 51°12.338 2°48.429 242.8 13 240 13.4
2004-08-23 07:04:57 51°12.327 2°48.4 243.1 13 239 13.4
2004-08-23 07:05:02 51°12.318 2°48.374 242.5 13.2 241 13.4
2004-08-23 07:05:05 51°12.313 2°48.359 242.9 13.1 239 13.4
2004-08-23 07:05:11 51°12.302 2°48.329 243.2 12.9 241 13.5
2004-08-23 07:05:17 51°12.291 2°48.3 243.5 13 239 13.3
2004-08-23 07:05:22 51°12.282 2°48.274 243.1 13.2 241 13.4
2004-08-23 07:05:27 51°12.273 2°48.249 243.8 13 240 13.4
2004-08-23 07:05:30 51°12.268 2°48.234 244.2 12.9 241 13.3
2004-08-23 07:05:37 51°12.255 2°48.2 243.4 13 240 13.3
2004-08-23 07:05:42 51°12.246 2°48.174 243.2 13.1 240 13.5
2004-08-23 07:05:46 51°12.239 2°48.155 242.9 13 239 13.5
2004-08-23 07:05:49 51°12.233 2°48.14 242.7 12.9 240 13.5
2004-08-23 07:05:57 51°12.218 2°48.1 242.1 13.1 238 13.4
2004-08-23 07:06:02 51°12.209 2°48.075 243.1 13 240 13.4
2004-08-23 07:06:05 51°12.204 2°48.06 243.3 12.9 240 13.5
2004-08-23 07:06:10 51°12.195 2°48.036 243.1 13.1 239 13.4
2004-08-23 07:06:17 51°12.182 2°48 243.2 13.1 240 13.5
2004-08-23 07:06:22 51°12.173 2°47.976 243.5 13.1 239 13.5
2004-08-23 07:06:25 51°12.168 2°47.96 243.1 13.1 241 13.4
2004-08-23 07:06:32 51°12.155 2°47.925 243.2 13.1 240 13.4
2004-08-23 07:06:37 51°12.146 2°47.9 243.1 13.1 241 13.4
2004-08-23 07:06:42 51°12.137 2°47.876 243.2 13 239 13.4
2004-08-23 07:06:46 51°12.129 2°47.856 243.1 13 240 13.4
2004-08-23 07:06:51 51°12.12 2°47.831 242.6 13.1 239 13.4
2004-08-23 07:06:57 51°12.109 2°47.8 242.9 13.1 241 13.3
2004-08-23 07:07:02 51°12.099 2°47.776 243 13.1 239 13.3
2004-08-23 07:07:07 51°12.09 2°47.751 242.8 13 240 13.3
2004-08-23 07:07:11 51°12.083 2°47.731 242.7 13 238 13.3
2004-08-23 07:07:17 51°12.072 2°47.701 242.3 13.1 240 13.4
2004-08-23 07:07:22 51°12.062 2°47.676 242.6 13.2 238 13.3
2004-08-23 07:07:27 51°12.054 2°47.651 242.3 13.2 240 13.3
2004-08-23 07:07:31 51°12.046 2°47.631 243.1 12.9 240 13.3
2004-08-23 07:07:37 51°12.035 2°47.601 242.8 13.2 240 13.2
2004-08-23 07:07:41 51°12.028 2°47.581 242.6 13.3 241 13.2
2004-08-23 07:07:47 51°12.018 2°47.551 244 13 241 13.3
2004-08-23 07:07:52 51°12.009 2°47.526 243.4 13 240 13.2
2004-08-23 07:07:57 51°12 2°47.5 243.1 13.1 240 13.3
2004-08-23 07:08:01 51°11.993 2°47.48 243.7 13.1 241 13.2
2004-08-23 07:08:07 51°11.982 2°47.45 243.8 13 240 13.3
2004-08-23 07:08:10 51°11.977 2°47.435 243.3 13.1 240 13.1
2004-08-23 07:08:23 51°11.953 2°47.37 242.9 13.1 240 13.2
2004-08-23 07:08:27 51°11.946 2°47.35 243.2 12.9 241 13.3
2004-08-23 07:08:33 51°11.935 2°47.32 242.9 13.2 239 13.1
2004-08-23 07:08:38 51°11.926 2°47.295 242.5 13.3 241 13.2
2004-08-23 07:08:43 51°11.917 2°47.27 243.4 13.1 240 13.2
2004-08-23 07:08:45 51°11.913 2°47.26 243.2 12.9 240 13.2
2004-08-23 07:08:53 51°11.898 2°47.22 242.7 13 240 13
2004-08-23 07:08:57 51°11.891 2°47.2 242.4 13.2 240 13.1
2004-08-23 07:09:03 51°11.88 2°47.17 242.8 13.1 240 13.1
2004-08-23 07:09:07 51°11.873 2°47.15 243.3 13 240 13
2004-08-23 07:09:13 51°11.862 2°47.12 243.3 13 240 13
2004-08-23 07:09:17 51°11.855 2°47.1 243.3 13.1 239 13
2004-08-23 07:09:23 51°11.844 2°47.07 242.7 13.1 240 13
2004-08-23 07:09:27 51°11.837 2°47.05 243 13 240 13
2004-08-23 07:09:33 51°11.826 2°47.02 242.6 13.1 240 12.9
2004-08-23 07:09:37 51°11.818 2°47 242.5 13.1 240 12.9
2004-08-23 07:09:45 51°11.804 2°46.96 243.1 13 240 12.9
2004-08-23 07:09:52 51°11.792 2°46.925 243.1 13.1 240 13
2004-08-23 07:09:57 51°11.783 2°46.9 243.1 13.1 240 12.9
2004-08-23 07:10:02 51°11.774 2°46.875 243.3 13.1 241 13
2004-08-23 07:10:07 51°11.765 2°46.85 243.8 13 242 12.9
2004-08-23 07:10:11 51°11.758 2°46.83 243.8 13.1 240 12.9
2004-08-23 07:10:17 51°11.747 2°46.799 243.4 13.2 242 12.8
2004-08-23 07:10:22 51°11.738 2°46.774 244 13.1 240 12.8
2004-08-23 07:10:27 51°11.73 2°46.748 243.6 13.1 241 12.8
2004-08-23 07:10:31 51°11.722 2°46.728 243.5 13.2 241 12.8
2004-08-23 07:10:37 51°11.712 2°46.697 243.5 13.1 241 12.8
2004-08-23 07:10:42 51°11.703 2°46.672 244 13 240 12.8
2004-08-23 07:10:45 51°11.697 2°46.657 243.3 13.2 240 12.7
2004-08-23 07:10:52 51°11.685 2°46.621 243.1 13.2 241 12.8
2004-08-23 07:10:57 51°11.676 2°46.596 243.9 13.2 241 12.8
2004-08-23 07:11:01 51°11.669 2°46.576 243.8 13.1 241 12.8
2004-08-23 07:11:05 51°11.662 2°46.556 243.6 13.3 240 12.8
2004-08-23 07:11:10 51°11.653 2°46.53 243.8 13.2 242 12.8
2004-08-23 07:11:17 51°11.641 2°46.494 244 13.1 241 12.8
2004-08-23 07:11:22 51°11.632 2°46.469 243.6 13.2 241 12.8
2004-08-23 07:11:25 51°11.627 2°46.454 243.6 13.2 240 12.8
2004-08-23 07:11:30 51°11.617 2°46.428 243.3 13.2 241 12.8
2004-08-23 07:11:37 51°11.605 2°46.393 243.3 13.2 241 12.8
2004-08-23 07:11:42 51°11.596 2°46.368 243.3 13.2 240 12.7
2004-08-23 07:11:45 51°11.591 2°46.352 242.9 13.3 241 12.7
2004-08-23 07:11:52 51°11.578 2°46.317 243.6 13.2 240 12.8
2004-08-23 07:11:57 51°11.57 2°46.291 243.8 13.1 241 12.8
2004-08-23 07:12:02 51°11.56 2°46.266 243.6 13.2 240 12.7
2004-08-23 07:12:06 51°11.554 2°46.245 243.7 13.3 242 12.7
2004-08-23 07:12:11 51°11.545 2°46.22 244.1 13.2 241 12.7
2004-08-23 07:12:17 51°11.534 2°46.189 243.9 13.2 241 12.6
2004-08-23 07:12:22 51°11.525 2°46.164 243.8 13.1 241 12.6
2004-08-23 07:12:27 51°11.516 2°46.139 243.5 13.2 240 12.5
2004-08-23 07:12:31 51°11.509 2°46.118 242.7 13.3 240 12.5
2004-08-23 07:12:37 51°11.498 2°46.088 243.2 13.3 241 12.5
2004-08-23 07:12:42 51°11.489 2°46.063 243.2 13.1 240 12.5
2004-08-23 07:12:46 51°11.482 2°46.042 242.7 13.3 240 12.4
2004-08-23 07:12:51 51°11.473 2°46.016 242.7 13.4 241 12.4
2004-08-23 07:12:57 51°11.462 2°45.986 243.8 13.2 242 12.4
2004-08-23 07:13:02 51°11.454 2°45.96 243.8 13.1 241 12.4
2004-08-23 07:13:05 51°11.449 2°45.944 244.6 13.2 245 12.3
2004-08-23 07:13:12 51°11.439 2°45.907 247 13.3 246 12.3
2004-08-23 07:13:17 51°11.432 2°45.88 248.9 13.2 247 12.3
2004-08-23 07:13:21 51°11.427 2°45.858 250.3 13.2 249 12.4
2004-08-23 07:13:27 51°11.419 2°45.825 251.1 13.2 249 12.3
2004-08-23 07:13:32 51°11.413 2°45.798 252.3 13.2 251 12.5
2004-08-23 07:13:35 51°11.41 2°45.781 253.8 13.3 253 12.4
2004-08-23 07:13:42 51°11.402 2°45.742 254.8 13.3 253 12.4
2004-08-23 07:13:47 51°11.397 2°45.714 255.5 13.2 253 12.5
2004-08-23 07:13:52 51°11.392 2°45.686 255.7 13.3 254 12.4
2004-08-23 07:13:57 51°11.386 2°45.657 255.7 13.3 253 12.5
2004-08-23 07:14:01 51°11.382 2°45.635 256.1 13.2 253 12.5
2004-08-23 07:14:07 51°11.376 2°45.601 256.2 13.3 254 12.5
2004-08-23 07:14:12 51°11.371 2°45.573 256.1 13.3 253 12.5
2004-08-23 07:14:17 51°11.366 2°45.545 256.2 13.2 254 12.5
2004-08-23 07:14:22 51°11.36 2°45.517 255.9 13.3 253 12.5
2004-08-23 07:14:25 51°11.357 2°45.5 255.7 13.2 253 12.5
2004-08-23 07:14:32 51°11.35 2°45.461 255.7 13.2 253 12.5
2004-08-23 07:14:37 51°11.344 2°45.433 255.5 13.4 253 12.6
2004-08-23 07:14:41 51°11.34 2°45.41 256.3 13.1 255 12.6
2004-08-23 07:14:46 51°11.335 2°45.383 256.5 13.2 253 12.6
2004-08-23 07:14:51 51°11.33 2°45.354 256.1 13.4 255 12.7
2004-08-23 07:14:57 51°11.324 2°45.32 256.9 13.4 255 12.6
2004-08-23 07:15:02 51°11.32 2°45.291 257 13.3 255 12.6
2004-08-23 07:15:05 51°11.316 2°45.275 256.7 13.4 253 12.7
2004-08-23 07:15:09 51°11.312 2°45.252 256.1 13.4 255 12.7
2004-08-23 07:15:17 51°11.304 2°45.206 256.3 13.4 254 12.7
2004-08-23 07:15:22 51°11.298 2°45.178 256.1 13.5 254 12.7
2004-08-23 07:15:25 51°11.295 2°45.161 256.1 13.5 254 12.6
2004-08-23 07:15:29 51°11.291 2°45.138 256.7 13.4 255 12.7
2004-08-23 07:15:37 51°11.284 2°45.092 256.7 13.5 255 12.7
2004-08-23 07:15:42 51°11.279 2°45.063 256.9 13.4 255 12.7
2004-08-23 07:15:45 51°11.276 2°45.046 256.8 13.5 254 12.8
2004-08-23 07:15:54 51°11.267 2°44.995 256.4 13.4 254 12.8
2004-08-23 07:15:58 51°11.262 2°44.972 255.9 13.5 253 12.7
2004-08-23 07:16:09 51°11.251 2°44.909 256 13.3 254 12.8
2004-08-23 07:16:15 51°11.244 2°44.875 255 13.6 252 12.8
2004-08-23 07:16:21 51°11.238 2°44.84 255.1 13.5 254 12.8
2004-08-23 07:16:26 51°11.232 2°44.813 256.2 13.3 252 12.9
2004-08-23 07:16:29 51°11.229 2°44.796 255 13.4 254 12.8
2004-08-23 07:16:36 51°11.221 2°44.756 255.3 13.5 253 12.8
2004-08-23 07:16:38 51°11.219 2°44.744 255.4 13.4 253 12.8
2004-08-23 07:16:46 51°11.211 2°44.699 255.4 13.4 253 12.8
2004-08-23 07:16:49 51°11.208 2°44.682 255.4 13.4 253 12.8
2004-08-23 07:16:54 51°11.202 2°44.654 255 13.5 253 12.9
2004-08-23 07:17:01 51°11.194 2°44.614 254.7 13.5 253 12.9
2004-08-23 07:17:05 51°11.19 2°44.591 255.2 13.4 254 12.9
2004-08-23 07:17:11 51°11.184 2°44.557 255.4 13.4 253 12.9
2004-08-23 07:17:14 51°11.181 2°44.539 255.7 13.5 255 12.9
2004-08-23 07:17:21 51°11.174 2°44.499 256.1 13.5 255 12.9
2004-08-23 07:17:26 51°11.169 2°44.471 256.4 13.4 255 12.9
2004-08-23 07:17:30 51°11.165 2°44.448 256.9 13.4 254 12.9
2004-08-23 07:17:34 51°11.161 2°44.425 256.3 13.5 255 12.8
2004-08-23 07:17:41 51°11.154 2°44.385 256.8 13.5 255 12.9
2004-08-23 07:17:46 51°11.15 2°44.356 257 13.4 256 12.9
2004-08-23 07:17:51 51°11.145 2°44.328 257.2 13.4 255 12.9
2004-08-23 07:17:54 51°11.142 2°44.31 257.5 13.6 257 12.9
2004-08-23 07:17:58 51°11.139 2°44.287 258.4 13.4 256 13
2004-08-23 07:18:05 51°11.132 2°44.246 258.5 13.4 256 13
2004-08-23 07:18:10 51°11.128 2°44.217 258.1 13.5 255 12.9
2004-08-23 07:18:14 51°11.124 2°44.194 257.8 13.5 256 13
2004-08-23 07:18:21 51°11.117 2°44.154 257.7 13.5 255 13
2004-08-23 07:18:26 51°11.113 2°44.125 257.1 13.5 256 13
2004-08-23 07:18:29 51°11.11 2°44.108 257.5 13.5 255 13.1
2004-08-23 07:18:36 51°11.104 2°44.068 257.5 13.4 255 13.1
2004-08-23 07:18:41 51°11.099 2°44.039 257.5 13.4 256 13.1
2004-08-23 07:18:45 51°11.095 2°44.016 257.6 13.5 255 13.1
2004-08-23 07:18:50 51°11.091 2°43.987 257.4 13.5 255 13.1
2004-08-23 07:18:54 51°11.087 2°43.964 257.7 13.4 255 13.1
2004-08-23 07:19:01 51°11.08 2°43.924 257.1 13.4 254 13.1
2004-08-23 07:19:05 51°11.077 2°43.901 257.1 13.5 255 13.1
2004-08-23 07:19:10 51°11.072 2°43.872 256.8 13.5 254 13.1
2004-08-23 07:19:15 51°11.067 2°43.843 256.8 13.5 256 13.1
2004-08-23 07:19:19 51°11.063 2°43.82 257 13.4 255 13.1
2004-08-23 07:19:26 51°11.057 2°43.78 257.1 13.5 256 13.3
2004-08-23 07:19:31 51°11.052 2°43.751 257.3 13.5 255 13.2
2004-08-23 07:19:33 51°11.05 2°43.739 257.7 13.5 257 13.1
2004-08-23 07:19:38 51°11.046 2°43.711 258.3 13.4 257 13.2
2004-08-23 07:19:46 51°11.038 2°43.665 258.4 13.4 255 13.2
2004-08-23 07:19:50 51°11.035 2°43.641 257.7 13.5 257 13.3
2004-08-23 07:19:54 51°11.031 2°43.618 257.6 13.6 254 13.2
2004-08-23 07:20:01 51°11.025 2°43.578 257.2 13.5 256 13.2
2004-08-23 07:20:05 51°11.021 2°43.555 257.6 13.4 255 13.2
2004-08-23 07:20:14 51°11.013 2°43.503 257.6 13.5 255 13.3
2004-08-23 07:20:18 51°11.01 2°43.479 258 13.4 257 13.3
2004-08-23 07:20:29 51°11 2°43.416 258 13.5 256 13.3
2004-08-23 07:20:35 51°10.994 2°43.381 257.6 13.5 256 13.3
2004-08-23 07:20:41 51°10.989 2°43.347 257.8 13.4 255 13.4
2004-08-23 07:20:46 51°10.984 2°43.318 257 13.4 255 13.4
2004-08-23 07:20:49 51°10.981 2°43.301 256.8 13.5 256 13.3
2004-08-23 07:20:56 51°10.974 2°43.261 257.4 13.5 255 13.3
2004-08-23 07:20:58 51°10.972 2°43.249 256.9 13.5 255 13.4
2004-08-23 07:21:06 51°10.965 2°43.203 257.4 13.4 255 13.4
2004-08-23 07:21:09 51°10.962 2°43.186 256.9 13.4 255 13.4
2004-08-23 07:21:14 51°10.958 2°43.157 256.9 13.4 255 13.4
2004-08-23 07:21:21 51°10.951 2°43.117 256.8 13.5 255 13.4
2004-08-23 07:21:26 51°10.946 2°43.088 256.4 13.5 254 13.3
2004-08-23 07:21:31 51°10.941 2°43.059 256.4 13.4 256 13.4
2004-08-23 07:21:34 51°10.938 2°43.042 256.9 13.4 255 13.4
2004-08-23 07:21:41 51°10.932 2°43.002 256.9 13.5 256 13.4
2004-08-23 07:21:46 51°10.927 2°42.973 257.7 13.5 255 13.4
2004-08-23 07:21:50 51°10.924 2°42.95 257.7 13.5 257 13.4
2004-08-23 07:21:54 51°10.92 2°42.927 258 13.4 254 13.4
2004-08-23 07:22:01 51°10.914 2°42.887 257.4 13.5 256 13.4
2004-08-23 07:22:05 51°10.91 2°42.864 257 13.5 254 13.4
2004-08-23 07:22:14 51°10.901 2°42.812 256.8 13.4 255 13.4
2004-08-23 07:22:18 51°10.898 2°42.789 256.8 13.5 256 13.4
2004-08-23 07:22:25 51°10.891 2°42.749 257.4 13.4 255 13.5
2004-08-23 07:22:29 51°10.888 2°42.726 257.6 13.4 256 13.4
2004-08-23 07:22:33 51°10.884 2°42.703 257.5 13.4 256 13.4
2004-08-23 07:22:37 51°10.881 2°42.68 257.6 13.4 256 13.4
2004-08-23 07:22:42 51°10.876 2°42.651 257.4 13.5 256 13.5
2004-08-23 07:22:49 51°10.87 2°42.61 258.1 13.5 256 13.5
2004-08-23 07:22:55 51°10.865 2°42.575 258.3 13.4 257 13.5
2004-08-23 07:22:57 51°10.863 2°42.564 258.5 13.4 257 13.4
2004-08-23 07:23:05 51°10.856 2°42.518 258 13.5 257 13.5
2004-08-23 07:23:09 51°10.853 2°42.495 258 13.5 255 13.3
2004-08-23 07:23:14 51°10.848 2°42.466 257.2 13.5 256 13.4
2004-08-23 07:23:17 51°10.845 2°42.448 257.2 13.4 256 13.5
2004-08-23 07:23:25 51°10.838 2°42.402 256.9 13.4 256 13.5
2004-08-23 07:23:34 51°10.83 2°42.35 257.6 13.5 256 13.5
2004-08-23 07:23:38 51°10.826 2°42.327 257.4 13.4 255 13.5
2004-08-23 07:23:45 51°10.819 2°42.287 257.1 13.4 256 13.4
2004-08-23 07:23:49 51°10.815 2°42.264 257.1 13.6 256 13.4
2004-08-23 07:23:55 51°10.81 2°42.228 257.4 13.7 257 13.4
2004-08-23 07:23:58 51°10.808 2°42.211 258.4 13.5 257 13.5
2004-08-23 07:24:05 51°10.802 2°42.171 258.2 13.3 256 13.6
2004-08-23 07:24:10 51°10.797 2°42.142 257.3 13.5 255 13.5
2004-08-23 07:24:14 51°10.793 2°42.119 256.8 13.6 256 13.5
2004-08-23 07:24:19 51°10.788 2°42.09 256.9 13.6 256 13.5
2004-08-23 07:24:25 51°10.783 2°42.055 257 13.5 256 13.5
2004-08-23 07:24:29 51°10.779 2°42.032 257.1 13.5 257 13.5
2004-08-23 07:24:34 51°10.775 2°42.003 257.8 13.3 257 13.6
2004-08-23 07:24:38 51°10.772 2°41.98 257.6 13.4 256 13.6
2004-08-23 07:24:45 51°10.766 2°41.939 257.6 13.7 257 13.6
2004-08-23 07:24:54 51°10.758 2°41.887 258.3 13.4 257 13.6
2004-08-23 07:24:59 51°10.754 2°41.858 257.9 13.3 256 13.6
2004-08-23 07:25:05 51°10.748 2°41.824 257.4 13.5 255 13.5
2004-08-23 07:25:10 51°10.743 2°41.795 256.9 13.7 255 13.5
2004-08-23 07:25:14 51°10.74 2°41.771 256.8 13.6 257 13.7
2004-08-23 07:25:19 51°10.735 2°41.742 257.4 13.4 256 13.5
2004-08-23 07:25:25 51°10.73 2°41.708 257.2 13.4 256 13.6
2004-08-23 07:25:30 51°10.725 2°41.679 257.2 13.5 255 13.6
2004-08-23 07:25:34 51°10.722 2°41.656 256.8 13.6 257 13.6
2004-08-23 07:25:37 51°10.719 2°41.638 257.1 13.6 256 13.6
2004-08-23 07:25:45 51°10.712 2°41.592 257.1 13.5 257 13.6
2004-08-23 07:25:50 51°10.707 2°41.563 257.2 13.4 256 13.7
2004-08-23 07:25:55 51°10.703 2°41.534 256.8 13.4 255 13.6
2004-08-23 07:25:59 51°10.699 2°41.511 256.7 13.5 256 13.6
2004-08-23 07:26:05 51°10.693 2°41.476 256.7 13.6 255 13.6
2004-08-23 07:26:10 51°10.689 2°41.447 257 13.6 256 13.7
2004-08-23 07:26:14 51°10.685 2°41.424 257.4 13.6 256 13.7
2004-08-23 07:26:18 51°10.682 2°41.401 257.7 13.4 257 13.6
2004-08-23 07:26:25 51°10.676 2°41.36 258.1 13.4 256 13.6
2004-08-23 07:26:29 51°10.673 2°41.337 257.1 13.6 256 13.6
2004-08-23 07:26:35 51°10.668 2°41.302 257.6 13.5 257 13.6
2004-08-23 07:26:38 51°10.665 2°41.285 257.6 13.5 255 13.7
2004-08-23 07:26:45 51°10.659 2°41.244 257.3 13.5 257 13.7
2004-08-23 07:26:50 51°10.653 2°41.215 256.9 13.5 255 13.7
2004-08-23 07:26:55 51°10.649 2°41.186 256.9 13.5 257 13.7
2004-08-23 07:26:58 51°10.646 2°41.169 256.7 13.6 255 13.7
2004-08-23 07:27:05 51°10.64 2°41.128 256.4 13.6 256 13.6
2004-08-23 07:27:10 51°10.635 2°41.099 256.9 13.5 256 13.6
2004-08-23 07:27:14 51°10.632 2°41.076 257.1 13.5 257 13.6
2004-08-23 07:27:19 51°10.627 2°41.047 257.1 13.5 257 13.7
2004-08-23 07:27:25 51°10.623 2°41.012 257.9 13.5 257 13.7
2004-08-23 07:27:30 51°10.618 2°40.983 257.8 13.6 256 13.6
2004-08-23 07:27:35 51°10.614 2°40.954 257.6 13.6 258 13.7
2004-08-23 07:27:38 51°10.611 2°40.937 258 13.5 256 13.7
2004-08-23 07:27:45 51°10.605 2°40.896 257.6 13.5 257 13.7
2004-08-23 07:27:50 51°10.601 2°40.867 257 13.6 257 13.8
2004-08-23 07:27:55 51°10.596 2°40.838 256.9 13.5 256 13.7
2004-08-23 07:27:57 51°10.594 2°40.826 257 13.6 256 13.8
2004-08-23 07:28:05 51°10.587 2°40.779 257.1 13.6 257 13.8
2004-08-23 07:28:10 51°10.583 2°40.751 257.2 13.5 257 13.8
2004-08-23 07:28:15 51°10.579 2°40.721 257.4 13.5 257 13.8
2004-08-23 07:28:19 51°10.575 2°40.698 257.5 13.5 256 13.8
2004-08-23 07:28:25 51°10.57 2°40.663 257.6 13.6 256 13.8
2004-08-23 07:28:30 51°10.566 2°40.634 257.8 13.6 258 13.9
2004-08-23 07:28:35 51°10.562 2°40.604 258 13.6 257 13.9
2004-08-23 07:28:39 51°10.559 2°40.581 258.3 13.6 257 14
2004-08-23 07:28:45 51°10.554 2°40.546 258.6 13.5 258 14
2004-08-23 07:28:49 51°10.551 2°40.523 258.4 13.5 257 14
2004-08-23 07:28:54 51°10.546 2°40.493 257.9 13.6 257 14.1
2004-08-23 07:28:57 51°10.544 2°40.476 257.6 13.6 257 14.2
2004-08-23 07:29:05 51°10.537 2°40.429 257.6 13.6 256 14.2
2004-08-23 07:29:10 51°10.532 2°40.4 257.4 13.5 257 14.3
2004-08-23 07:29:15 51°10.528 2°40.371 257.1 13.5 255 14.3
2004-08-23 07:29:18 51°10.525 2°40.354 256.4 13.6 255 14.4
2004-08-23 07:29:25 51°10.518 2°40.313 256.5 13.5 256 14.4
2004-08-23 07:29:30 51°10.514 2°40.284 256.5 13.5 257 14.4
2004-08-23 07:29:35 51°10.509 2°40.256 256.7 13.5 256 14.5
2004-08-23 07:29:38 51°10.506 2°40.238 256.6 13.5 256 14.5
2004-08-23 07:29:45 51°10.5 2°40.198 256.6 13.5 256 14.6
2004-08-23 07:29:53 51°10.493 2°40.151 257.4 13.5 256 14.6
2004-08-23 07:30:00 51°10.487 2°40.111 257.1 13.5 256 14.7
2004-08-23 07:30:05 51°10.482 2°40.082 257 13.5 256 14.7
2004-08-23 07:30:09 51°10.479 2°40.059 257.4 13.4 257 14.7
2004-08-23 07:30:15 51°10.474 2°40.024 257.5 13.4 256 14.7
2004-08-23 07:30:19 51°10.47 2°40.001 257.1 13.4 257 14.9
2004-08-23 07:30:25 51°10.465 2°39.966 257 13.5 255 14.9
2004-08-23 07:30:30 51°10.46 2°39.937 256.7 13.5 257 14.9
2004-08-23 07:30:34 51°10.457 2°39.914 256.9 13.4 255 15
2004-08-23 07:30:39 51°10.452 2°39.885 256.8 13.4 256 15
2004-08-23 07:30:45 51°10.446 2°39.851 256.3 13.4 255 15.1
2004-08-23 07:30:50 51°10.442 2°39.822 256.5 13.5 256 15.1
2004-08-23 07:30:55 51°10.437 2°39.793 256.7 13.5 255 15.1
2004-08-23 07:31:00 51°10.433 2°39.764 257.1 13.5 257 15.2
2004-08-23 07:31:05 51°10.429 2°39.736 257.6 13.4 256 15.3
2004-08-23 07:31:10 51°10.425 2°39.707 257.3 13.5 257 15.3
2004-08-23 07:31:14 51°10.421 2°39.684 257.3 13.5 256 15.3
2004-08-23 07:31:18 51°10.418 2°39.66 257.4 13.5 256 15.3
2004-08-23 07:31:25 51°10.411 2°39.62 256.9 13.5 257 15.4
2004-08-23 07:31:30 51°10.407 2°39.591 257.1 13.5 256 15.5
2004-08-23 07:31:34 51°10.403 2°39.568 257 13.5 256 15.6
2004-08-23 07:31:40 51°10.398 2°39.533 256.9 13.4 257 15.6
2004-08-23 07:31:43 51°10.395 2°39.516 256.4 13.5 257 15.6
2004-08-23 07:31:49 51°10.39 2°39.481 256.8 13.5 256 15.6
2004-08-23 07:31:54 51°10.386 2°39.452 256.9 13.5 256 15.7
2004-08-23 07:31:58 51°10.383 2°39.429 257.8 13.5 257 15.7
2004-08-23 07:32:05 51°10.377 2°39.388 258 13.5 257 15.7
2004-08-23 07:32:09 51°10.373 2°39.365 257.7 13.5 256 15.8
2004-08-23 07:32:14 51°10.369 2°39.336 257.5 13.5 257 15.8
2004-08-23 07:32:18 51°10.365 2°39.313 257.1 13.5 256 15.8
2004-08-23 07:32:25 51°10.36 2°39.272 256.9 13.5 256 16.1
2004-08-23 07:32:30 51°10.355 2°39.243 257 13.5 257 16
2004-08-23 07:32:34 51°10.352 2°39.22 257.4 13.5 257 16.1
2004-08-23 07:32:39 51°10.347 2°39.191 257 13.5 256 16.1
2004-08-23 07:32:45 51°10.342 2°39.156 257 13.5 255 16.2
2004-08-23 07:32:50 51°10.338 2°39.127 256.7 13.5 257 16.1
2004-08-23 07:32:55 51°10.333 2°39.099 256.5 13.5 256 16.5
2004-08-23 07:33:00 51°10.329 2°39.07 256.8 13.5 257 16.6
2004-08-23 07:33:05 51°10.324 2°39.041 256.9 13.5 256 16.6
2004-08-23 07:33:10 51°10.32 2°39.012 256.8 13.5 257 16.7
2004-08-23 07:33:14 51°10.317 2°38.988 256.9 13.5 257 16.7
2004-08-23 07:33:18 51°10.313 2°38.965 257.3 13.5 257 16.4
2004-08-23 07:33:25 51°10.308 2°38.925 257.9 13.5 258 16.5
2004-08-23 07:33:30 51°10.303 2°38.896 258 13.5 256 16.7
2004-08-23 07:33:34 51°10.301 2°38.872 257.7 13.5 259 16.9
2004-08-23 07:33:40 51°10.296 2°38.837 258 13.5 257 17
2004-08-23 07:33:43 51°10.293 2°38.82 258.3 13.5 258 17
2004-08-23 07:33:49 51°10.289 2°38.785 258.3 13.5 257 17
2004-08-23 07:33:53 51°10.286 2°38.761 258.4 13.5 259 16.8
2004-08-23 07:34:00 51°10.28 2°38.721 258.3 13.5 257 17.1
2004-08-23 07:34:05 51°10.276 2°38.692 257.9 13.4 258 17.3
2004-08-23 07:34:09 51°10.272 2°38.669 257.5 13.4 256 17.2
2004-08-23 07:34:15 51°10.267 2°38.635 256.9 13.4 257 17.3
2004-08-23 07:34:19 51°10.263 2°38.612 256.8 13.4 256 17.3
2004-08-23 07:34:25 51°10.258 2°38.577 256.5 13.4 256 17.1
2004-08-23 07:34:30 51°10.253 2°38.549 256.2 13.4 255 17.3
2004-08-23 07:34:34 51°10.25 2°38.526 256 13.5 257 16.8
2004-08-23 07:34:38 51°10.246 2°38.503 256.2 13.4 255 16.8
2004-08-23 07:34:45 51°10.24 2°38.463 256.6 13.4 257 16.7
2004-08-23 07:34:50 51°10.236 2°38.434 256.8 13.5 257 16.6
2004-08-23 07:34:53 51°10.233 2°38.416 257.6 13.5 258 16.7
2004-08-23 07:35:02 51°10.226 2°38.364 257.7 13.4 257 16.9
2004-08-23 07:35:07 51°10.222 2°38.335 257.5 13.5 257 16.9
2004-08-23 07:35:13 51°10.217 2°38.301 257.4 13.4 257 17
2004-08-23 07:35:18 51°10.213 2°38.272 257.1 13.4 258 17.2
2004-08-23 07:35:22 51°10.21 2°38.25 257.3 13.5 257 17.5
2004-08-23 07:35:28 51°10.206 2°38.215 257.8 13.4 259 17.3
2004-08-23 07:35:33 51°10.201 2°38.186 257.8 13.4 256 17.3
2004-08-23 07:35:37 51°10.198 2°38.163 258.3 13.5 257 17.4
2004-08-23 07:35:42 51°10.194 2°38.134 257.8 13.4 257 17.4
2004-08-23 07:35:46 51°10.191 2°38.111 257.7 13.4 258 17.4
2004-08-23 07:35:53 51°10.186 2°38.071 257.6 13.4 257 17.4
2004-08-23 07:35:58 51°10.182 2°38.042 257.3 13.5 256 17.6
2004-08-23 07:36:02 51°10.178 2°38.019 257 13.5 257 17.8
2004-08-23 07:36:08 51°10.172 2°37.984 256.8 13.4 256 17.9
2004-08-23 07:36:13 51°10.168 2°37.955 256.5 13.5 256 18
2004-08-23 07:36:17 51°10.164 2°37.932 256.5 13.4 257 18
2004-08-23 07:36:22 51°10.16 2°37.903 256.9 13.4 256 17.5
2004-08-23 07:36:26 51°10.156 2°37.88 256.5 13.5 256 18
2004-08-23 07:36:33 51°10.149 2°37.839 256.7 13.5 257 17.5
2004-08-23 07:36:38 51°10.145 2°37.81 256.7 13.5 256 17.9
2004-08-23 07:36:42 51°10.141 2°37.787 256.7 13.5 257 17.8
2004-08-23 07:36:48 51°10.135 2°37.752 256.7 13.5 256 18.2
2004-08-23 07:36:53 51°10.131 2°37.723 256.9 13.6 257 18.2
2004-08-23 07:36:58 51°10.126 2°37.694 257.2 13.5 257 18.1
2004-08-23 07:37:02 51°10.123 2°37.671 257.3 13.4 257 18.3
2004-08-23 07:37:07 51°10.119 2°37.642 257.1 13.5 257 18.5
2004-08-23 07:37:13 51°10.113 2°37.607 257 13.5 256 18.5
2004-08-23 07:37:18 51°10.109 2°37.578 257.1 13.4 258 18.7
2004-08-23 07:37:22 51°10.106 2°37.554 257.3 13.6 256 18.6
2004-08-23 07:37:27 51°10.101 2°37.525 257.2 13.6 257 18.7
2004-08-23 07:37:33 51°10.096 2°37.49 257.6 13.5 255 18.6
2004-08-23 07:37:38 51°10.092 2°37.461 257.1 13.6 258 18.7
2004-08-23 07:37:43 51°10.087 2°37.432 257.2 13.6 256 18.7
2004-08-23 07:37:45 51°10.086 2°37.42 257.3 13.6 257 18.7
2004-08-23 07:37:52 51°10.08 2°37.379 257.5 13.5 257 18.7
2004-08-23 07:37:57 51°10.075 2°37.35 257.6 13.6 257 18.6
2004-08-23 07:38:03 51°10.071 2°37.315 257.5 13.6 258 18.6
2004-08-23 07:38:07 51°10.067 2°37.292 257.6 13.5 256 18.7
2004-08-23 07:38:13 51°10.062 2°37.257 257.6 13.6 256 18.7
2004-08-23 07:38:18 51°10.058 2°37.227 257.6 13.6 257 18.7
2004-08-23 07:38:22 51°10.055 2°37.204 257.5 13.6 257 18.6
2004-08-23 07:38:28 51°10.049 2°37.169 257.3 13.6 256 18.8
2004-08-23 07:38:33 51°10.044 2°37.14 256.9 13.6 257 18.5
2004-08-23 07:38:38 51°10.04 2°37.111 257 13.7 256 18.7
2004-08-23 07:38:42 51°10.036 2°37.087 256.9 13.7 257 18.7
2004-08-23 07:38:47 51°10.031 2°37.058 257.2 13.7 255 18.8
2004-08-23 07:38:53 51°10.026 2°37.023 256.8 13.7 258 18.6
2004-08-23 07:38:58 51°10.022 2°36.993 257.1 13.7 256 18.7
2004-08-23 07:39:02 51°10.019 2°36.969 257.4 13.7 258 18.7
2004-08-23 07:39:07 51°10.015 2°36.94 257.6 13.7 258 18.9
2004-08-23 07:39:13 51°10.012 2°36.904 259.8 13.7 265 18.7
2004-08-23 07:39:18 51°10.01 2°36.873 263.4 13.7 264 18.5
2004-08-23 07:39:23 51°10.009 2°36.843 265.5 13.7 266 19
2004-08-23 07:39:25 51°10.008 2°36.831 266.8 13.7 268 18.7
2004-08-23 07:39:32 51°10.007 2°36.789 267.5 13.8 269 18.6
2004-08-23 07:39:37 51°10.007 2°36.759 269.2 13.7 269 18.6
2004-08-23 07:39:43 51°10.007 2°36.722 269.5 13.7 269 18.6
2004-08-23 07:39:47 51°10.007 2°36.698 270 13.7 271 18.5
2004-08-23 07:39:53 51°10.006 2°36.662 270.3 13.7 270 18.5
2004-08-23 07:39:57 51°10.007 2°36.637 270.4 13.7 270 18.7
2004-08-23 07:40:02 51°10.006 2°36.607 270.5 13.8 269 18.8
2004-08-23 07:40:05 51°10.007 2°36.589 270.4 13.7 270 18.8
2004-08-23 07:40:13 51°10.006 2°36.54 270 13.7 269 18.7
2004-08-23 07:40:18 51°10.006 2°36.51 269.9 13.8 270 18.8
2004-08-23 07:40:21 51°10.006 2°36.492 270.1 13.7 269 18.7
2004-08-23 07:40:28 51°10.006 2°36.45 270 13.7 270 18.8
2004-08-23 07:40:33 51°10.005 2°36.419 269.8 13.7 269 18.8
2004-08-23 07:40:38 51°10.005 2°36.389 269.7 13.7 270 18.8
2004-08-23 07:40:43 51°10.005 2°36.359 269.4 13.7 269 18.9
2004-08-23 07:40:48 51°10.006 2°36.329 270.6 13.7 272 18.9
2004-08-23 07:40:53 51°10.007 2°36.299 272.7 13.6 273 18.9
2004-08-23 07:40:57 51°10.008 2°36.275 274.1 13.7 275 18.9
2004-08-23 07:41:02 51°10.01 2°36.245 275.1 13.6 275 19
2004-08-23 07:41:06 51°10.011 2°36.221 275.8 13.6 276 19
2004-08-23 07:41:13 51°10.014 2°36.179 276 13.6 276 19
2004-08-23 07:41:17 51°10.016 2°36.155 276.2 13.6 276 18.9
2004-08-23 07:41:22 51°10.018 2°36.125 276.2 13.6 276 18.8
2004-08-23 07:41:26 51°10.02 2°36.101 276.5 13.6 276 18.7
2004-08-23 07:41:33 51°10.022 2°36.06 276.5 13.5 276 18.6
2004-08-23 07:41:38 51°10.024 2°36.03 276.2 13.6 276 18.5
2004-08-23 07:41:43 51°10.026 2°36 276.3 13.6 276 18.5
2004-08-23 07:41:48 51°10.028 2°35.97 276.4 13.5 276 18.4
2004-08-23 07:41:53 51°10.03 2°35.94 276.4 13.6 277 18.3
2004-08-23 07:41:58 51°10.032 2°35.91 276.5 13.6 275 18
2004-08-23 07:42:03 51°10.035 2°35.88 276.5 13.7 277 17.9
2004-08-23 07:42:08 51°10.037 2°35.851 276.9 13.6 277 17.7
2004-08-23 07:42:13 51°10.039 2°35.821 276.6 13.6 277 17.5
2004-08-23 07:42:17 51°10.041 2°35.797 276.8 13.6 276 17.1
2004-08-23 07:42:21 51°10.042 2°35.773 276.7 13.6 276 16.9
2004-08-23 07:42:27 51°10.045 2°35.737 276.6 13.6 276 16.5
2004-08-23 07:42:33 51°10.048 2°35.702 276.6 13.5 278 16.2
2004-08-23 07:42:37 51°10.05 2°35.678 276.6 13.6 278 15.7
2004-08-23 07:42:42 51°10.054 2°35.649 279.4 13.6 283 15.3
2004-08-23 07:42:48 51°10.06 2°35.614 282.3 13.5 285 14.5
2004-08-23 07:42:50 51°10.062 2°35.603 288 13.5 296 14.6
2004-08-23 07:42:57 51°10.075 2°35.566 292.7 13.5 299 13.9
2004-08-23 07:43:02 51°10.086 2°35.542 299.9 13.5 304 12.9
2004-08-23 07:43:08 51°10.1 2°35.514 305 13.4 309 12.4
2004-08-23 07:43:13 51°10.114 2°35.495 311 13.3 319 12.1
2004-08-23 07:43:17 51°10.126 2°35.48 318.2 13.4 323 11.8
2004-08-23 07:43:23 51°10.145 2°35.461 324.4 13.4 328 11.9
2004-08-23 07:43:27 51°10.158 2°35.451 329.4 13.5 332 11.8
2004-08-23 07:43:33 51°10.179 2°35.438 335.4 13.5 337 12
2004-08-23 07:43:38 51°10.197 2°35.431 341.6 13.5 346 11.9
2004-08-23 07:43:42 51°10.212 2°35.428 347.6 13.6 351 12.1
2004-08-23 07:43:47 51°10.231 2°35.426 353.6 13.5 358 12
2004-08-23 07:43:52 51°10.25 2°35.427 1.1 13.5 5 12.2
2004-08-23 07:43:58 51°10.272 2°35.433 7.1 13.5 10 12.2
2004-08-23 07:44:03 51°10.291 2°35.44 11.9 13.5 13 12.2
2004-08-23 07:44:05 51°10.298 2°35.444 17.5 13.6 17 12.2
2004-08-23 07:44:13 51°10.327 2°35.458 20.8 13.6 19 12.3
2004-08-23 07:44:18 51°10.344 2°35.469 22.3 13.7 20 11.9
2004-08-23 07:44:23 51°10.362 2°35.48 23.9 13.7 21 12.2
2004-08-23 07:44:25 51°10.369 2°35.485 25.1 13.8 24 12.1
2004-08-23 07:44:33 51°10.397 2°35.505 26.9 13.8 25 11.9
2004-08-23 07:44:38 51°10.414 2°35.518 28.5 13.8 25 11.5
2004-08-23 07:44:43 51°10.431 2°35.532 29.6 13.8 27 11.4
2004-08-23 07:44:45 51°10.438 2°35.537 30.6 13.8 27 11.4
2004-08-23 07:44:53 51°10.466 2°35.559 31.2 13.8 27 11.3
2004-08-23 07:44:58 51°10.483 2°35.573 31.3 13.8 27 11.3
2004-08-23 07:45:02 51°10.496 2°35.584 31.7 13.8 27 11.3
2004-08-23 07:45:06 51°10.51 2°35.595 31.7 13.8 27 11.1
2004-08-23 07:45:12 51°10.53 2°35.612 31.8 13.9 27 11.1
2004-08-23 07:45:18 51°10.551 2°35.629 31.6 13.8 28 11.1
2004-08-23 07:45:23 51°10.568 2°35.643 31.6 13.8 27 11.2
2004-08-23 07:45:28 51°10.585 2°35.658 31.8 13.9 28 11.1
2004-08-23 07:45:33 51°10.602 2°35.672 32.5 13.8 28 11
2004-08-23 07:45:38 51°10.618 2°35.687 32.9 13.8 29 11.1
2004-08-23 07:45:43 51°10.635 2°35.702 33.5 13.9 29 11.2
2004-08-23 07:45:45 51°10.642 2°35.709 34 13.9 30 11.3
2004-08-23 07:45:53 51°10.668 2°35.733 34.2 13.9 30 11.2
2004-08-23 07:46:03 51°10.702 2°35.764 34.6 13.8 30 11.3
2004-08-23 07:46:07 51°10.715 2°35.776 34.6 13.9 30 11
2004-08-23 07:46:13 51°10.736 2°35.795 34.6 13.8 30 11.4
2004-08-23 07:46:18 51°10.752 2°35.81 34.5 13.9 30 11.3
2004-08-23 07:46:23 51°10.769 2°35.825 34.5 13.9 29 11.5
2004-08-23 07:46:28 51°10.786 2°35.84 34.4 13.9 30 11.3
2004-08-23 07:46:32 51°10.799 2°35.852 34.2 13.8 29 11.5
2004-08-23 07:46:37 51°10.816 2°35.867 33.8 13.9 29 11.3
2004-08-23 07:46:42 51°10.833 2°35.882 33.6 13.9 29 11.3
2004-08-23 07:46:46 51°10.846 2°35.894 33.4 13.9 29 11.3
2004-08-23 07:46:53 51°10.87 2°35.915 33.5 13.8 29 11.5
2004-08-23 07:46:58 51°10.886 2°35.93 33.9 13.8 30 11.4
2004-08-23 07:47:03 51°10.903 2°35.945 34.2 13.8 30 11.4
2004-08-23 07:47:07 51°10.916 2°35.957 34.3 13.8 29 11.5
2004-08-23 07:47:13 51°10.936 2°35.975 34.1 13.8 29 11.4
2004-08-23 07:47:18 51°10.953 2°35.989 33.9 13.8 29 11.4
2004-08-23 07:47:23 51°10.97 2°36.004 33.8 13.8 29 11.6
2004-08-23 07:47:28 51°10.987 2°36.019 33.7 13.8 29 11.7
2004-08-23 07:47:33 51°11.003 2°36.034 33.5 13.9 29 11.5
2004-08-23 07:47:37 51°11.017 2°36.045 33.4 13.8 28 11.6
2004-08-23 07:47:45 51°11.044 2°36.068 33.3 13.8 28 11.6
2004-08-23 07:47:52 51°11.068 2°36.088 33.1 13.8 28 11.7
2004-08-23 07:47:57 51°11.085 2°36.103 33 13.8 28 11.6
2004-08-23 07:48:05 51°11.112 2°36.126 33.1 13.8 28 11.7
2004-08-23 07:48:12 51°11.135 2°36.146 33.3 13.8 29 11.5
2004-08-23 07:48:17 51°11.152 2°36.161 33.9 13.8 29 11.6
2004-08-23 07:48:25 51°11.178 2°36.185 34.1 13.8 29 11.7
2004-08-23 07:48:32 51°11.202 2°36.206 34.1 13.8 29 11.7
2004-08-23 07:48:37 51°11.219 2°36.22 33.9 13.8 29 11.7
2004-08-23 07:48:45 51°11.246 2°36.243 33.3 13.9 28 11.7
2004-08-23 07:48:52 51°11.269 2°36.264 33.3 13.8 29 11.7
2004-08-23 07:48:57 51°11.286 2°36.278 33.5 13.8 29 11.6
2004-08-23 07:49:02 51°11.303 2°36.293 33.7 13.9 29 11.7
2004-08-23 07:49:06 51°11.316 2°36.305 33.9 13.8 29 11.6
2004-08-23 07:49:11 51°11.333 2°36.32 34.1 13.8 30 11.7
2004-08-23 07:49:17 51°11.353 2°36.338 34.3 13.8 30 11.7
2004-08-23 07:49:21 51°11.366 2°36.35 34.9 13.8 30 11.6
2004-08-23 07:49:27 51°11.386 2°36.369 35.4 13.8 31 11.6
2004-08-23 07:49:32 51°11.402 2°36.385 36 13.8 31 11.5
2004-08-23 07:49:37 51°11.418 2°36.401 36.2 13.8 32 11.6
2004-08-23 07:49:41 51°11.431 2°36.413 36.7 13.8 31 11.6
2004-08-23 07:49:46 51°11.448 2°36.429 36.9 13.8 32 11.6
2004-08-23 07:49:50 51°11.46 2°36.442 37.2 13.8 32 11.7
2004-08-23 07:49:54 51°11.473 2°36.455 37.2 13.8 32 11.6
2004-08-23 07:50:02 51°11.499 2°36.48 36.8 13.8 32 11.5
2004-08-23 07:50:05 51°11.509 2°36.49 36.9 13.8 32 11.4
2004-08-23 07:50:12 51°11.532 2°36.512 37 13.8 32 11.5
2004-08-23 07:50:17 51°11.548 2°36.528 37.1 13.8 32 11.6
2004-08-23 07:50:22 51°11.565 2°36.544 36.7 13.8 31 11.6
2004-08-23 07:50:25 51°11.574 2°36.553 36.5 13.8 31 11.4
2004-08-23 07:50:31 51°11.594 2°36.572 36.5 13.8 31 11.5
2004-08-23 07:50:37 51°11.614 2°36.591 36.5 13.8 31 11.5
2004-08-23 07:50:42 51°11.63 2°36.607 36.5 13.8 31 11.5
2004-08-23 07:50:47 51°11.647 2°36.623 36.6 13.8 31 11.4
2004-08-23 07:50:49 51°11.653 2°36.629 36.9 13.8 31 11.5
2004-08-23 07:50:57 51°11.679 2°36.655 36.9 13.8 32 11.5
2004-08-23 07:51:02 51°11.696 2°36.671 37 13.8 31 11.4
2004-08-23 07:51:05 51°11.705 2°36.68 37 13.8 31 11.4
2004-08-23 07:51:12 51°11.728 2°36.702 36.8 13.8 32 11.3
2004-08-23 07:51:17 51°11.744 2°36.718 36.8 13.7 32 11.4
2004-08-23 07:51:22 51°11.76 2°36.735 37.4 13.7 33 11.4
2004-08-23 07:51:25 51°11.77 2°36.745 37.8 13.8 33 11.3
2004-08-23 07:51:32 51°11.793 2°36.768 38.4 13.8 33 11.3
2004-08-23 07:51:37 51°11.809 2°36.785 38.7 13.8 33 11.3
2004-08-23 07:51:42 51°11.825 2°36.801 38.9 13.8 34 11.2
2004-08-23 07:51:47 51°11.841 2°36.818 39.1 13.7 33 11.2
2004-08-23 07:51:50 51°11.85 2°36.828 39 13.7 33 11.3
2004-08-23 07:51:57 51°11.873 2°36.852 38.8 13.8 33 11.3
2004-08-23 07:52:01 51°11.886 2°36.864 38.4 13.8 33 11.3
2004-08-23 07:52:05 51°11.898 2°36.878 38.4 13.7 33 11.4
2004-08-23 07:52:12 51°11.92 2°36.902 38.9 13.8 34 11.4
2004-08-23 07:52:17 51°11.936 2°36.919 39.6 13.8 35 11.3
2004-08-23 07:52:22 51°11.951 2°36.937 40.2 13.8 35 11.4
2004-08-23 07:52:26 51°11.964 2°36.951 40.5 13.8 35 11.4
2004-08-23 07:52:32 51°11.982 2°36.972 40.7 13.8 35 11.3
2004-08-23 07:52:37 51°11.998 2°36.989 40.7 13.7 35 11.3
2004-08-23 07:52:41 51°12.01 2°37.003 40.7 13.8 35 11.5
2004-08-23 07:52:47 51°12.029 2°37.024 40.7 13.7 35 11.5
2004-08-23 07:52:52 51°12.045 2°37.042 40.8 13.7 35 11.5
2004-08-23 07:52:57 51°12.06 2°37.059 40.9 13.8 36 11.4
2004-08-23 07:53:02 51°12.076 2°37.077 40.9 13.8 35 11.4
2004-08-23 07:53:05 51°12.085 2°37.087 40.8 13.8 35 11.6
2004-08-23 07:53:12 51°12.107 2°37.112 40.6 13.8 35 11.6
2004-08-23 07:53:17 51°12.123 2°37.13 40.4 13.8 35 11.7
2004-08-23 07:53:21 51°12.135 2°37.144 40.1 13.8 35 11.7
2004-08-23 07:53:26 51°12.151 2°37.161 40.1 13.7 34 11.7
2004-08-23 07:53:32 51°12.169 2°37.182 40.3 13.8 35 11.7
2004-08-23 07:53:37 51°12.185 2°37.2 40.5 13.8 35 11.7
2004-08-23 07:53:42 51°12.2 2°37.218 40.7 13.8 36 11.8
2004-08-23 07:53:47 51°12.216 2°37.236 40.9 13.8 35 11.8
2004-08-23 07:53:50 51°12.225 2°37.246 41.1 13.8 36 11.8
2004-08-23 07:53:57 51°12.247 2°37.271 41.3 13.8 35 11.8
2004-08-23 07:54:01 51°12.26 2°37.285 41.1 13.8 36 11.9
2004-08-23 07:54:05 51°12.272 2°37.299 40.6 13.7 34 11.8
2004-08-23 07:54:12 51°12.294 2°37.323 40.4 13.7 35 12
2004-08-23 07:54:17 51°12.31 2°37.34 39.8 13.8 34 12
2004-08-23 07:54:22 51°12.326 2°37.357 39.7 13.8 34 12
2004-08-23 07:54:27 51°12.342 2°37.374 39.9 13.8 34 12.2
2004-08-23 07:54:29 51°12.348 2°37.381 40.1 13.7 35 12.1
2004-08-23 07:54:38 51°12.376 2°37.413 40.7 13.8 35 12.2
2004-08-23 07:54:42 51°12.388 2°37.427 40.7 13.8 36 12.3
2004-08-23 07:54:45 51°12.398 2°37.438 41 13.8 35 12.3
2004-08-23 07:54:52 51°12.419 2°37.463 41.1 13.8 36 12.3
2004-08-23 07:54:57 51°12.435 2°37.481 41.2 13.8 36 12.3
2004-08-23 07:55:02 51°12.451 2°37.498 41.3 13.8 36 12.2
2004-08-23 07:55:05 51°12.46 2°37.509 41 13.8 35 12.5
2004-08-23 07:55:12 51°12.482 2°37.533 40.8 13.8 35 12.7
2004-08-23 07:55:17 51°12.498 2°37.55 40.5 13.8 35 12.7
2004-08-23 07:55:22 51°12.515 2°37.567 40.1 13.8 34 12.5
2004-08-23 07:55:27 51°12.53 2°37.584 39.9 13.8 34 12.7
2004-08-23 07:55:30 51°12.539 2°37.595 40 13.8 35 12.7
2004-08-23 07:55:37 51°12.561 2°37.619 40.1 13.7 35 12.7
2004-08-23 07:55:41 51°12.574 2°37.633 40.6 13.7 35 12.9
2004-08-23 07:55:46 51°12.59 2°37.65 40.5 13.8 35 12.8
2004-08-23 07:55:51 51°12.605 2°37.668 40.5 13.8 35 12.8
2004-08-23 07:55:54 51°12.615 2°37.678 40.2 13.8 34 13.1
2004-08-23 07:56:01 51°12.637 2°37.702 39.9 13.8 34 13
2004-08-23 07:56:04 51°12.647 2°37.712 39.9 13.8 34 13.2
2004-08-23 07:56:09 51°12.663 2°37.729 39.8 13.8 35 13.3
2004-08-23 07:56:17 51°12.688 2°37.756 39.8 13.8 33 13.4
2004-08-23 07:56:22 51°12.704 2°37.773 39.8 13.8 34 13.3
2004-08-23 07:56:27 51°12.72 2°37.79 39.9 13.8 34 13.4
2004-08-23 07:56:29 51°12.726 2°37.797 40 13.8 35 13.4
2004-08-23 07:56:38 51°12.755 2°37.828 40.1 13.7 35 13.4
2004-08-23 07:56:42 51°12.767 2°37.842 40.1 13.8 35 13.5
2004-08-23 07:56:46 51°12.78 2°37.856 40.4 13.8 35 13.4
2004-08-23 07:56:52 51°12.798 2°37.877 40.6 13.8 35 13.5
2004-08-23 07:56:57 51°12.814 2°37.895 40.6 13.7 35 13.5
2004-08-23 07:57:02 51°12.83 2°37.912 40.6 13.8 35 13.7
2004-08-23 07:57:07 51°12.846 2°37.929 40.6 13.8 35 13.7
2004-08-23 07:57:11 51°12.858 2°37.943 40.5 13.8 34 13.8
2004-08-23 07:57:17 51°12.878 2°37.963 40.2 13.8 35 13.8
2004-08-23 07:57:21 51°12.89 2°37.977 39.9 13.8 34 14
2004-08-23 07:57:25 51°12.903 2°37.99 39.8 13.8 34 13.9
2004-08-23 07:57:32 51°12.925 2°38.014 39.7 13.8 34 14
2004-08-23 07:57:35 51°12.935 2°38.024 39.7 13.8 34 14
2004-08-23 07:57:42 51°12.957 2°38.047 39.7 13.8 34 14.2
2004-08-23 07:57:45 51°12.966 2°38.058 39.9 13.8 34 14.2
2004-08-23 07:57:52 51°12.989 2°38.082 39.8 13.8 34 14.3
2004-08-23 07:57:57 51°13.004 2°38.098 39.9 13.7 34 14.4
2004-08-23 07:58:02 51°13.02 2°38.115 39.9 13.7 35 14.3